In Rescue
 
Open Full Screen Window  High Contrast Mode
November 19, 2019 1:22 PM EST
Weather Information
Wind Direction
  ---
Wind Speed
  00 kt (0 mph)
Wind Gust
  00 kt (0 mph)
Altimeter
29.81 in
Visibility
10 SM
Temperature
08° C
46° F
Dewpoint
01° C
34° F
Humidity
62%
1hr Rain Fall
00.00 in.
24hr Rain Fall
00.00 in.
Sky Condition
Scattered @ 2,800 ft
VFR

METAR KI19 191822Z AUTO 00000KT 10SM SCT028 08/01 A2981 RMK AO2 T00790009

FAA Disclaimer: The data displayed is for advisory purposes only and is not to be used for flight planning or operations.